Atmospheric History
12/06/2017 18:41  to  12/7/2017 18:41
Change End Date:
To complete the export process:
1) Select all of the data below
2) Copy the data to the clipboard
3) Open a word processor such as Notepad
4) Paste the data into the word processor
5) Save the file

Date/Time (MST), AirTemp, RH, Dewpoint ,AvgWindSpeed, GustWindSpeed, WindDirection, PrecipType, PrecipIntensity, PrecipAccumulation, PrecipRate
12/07/2017 18:32, 17, 86, 14 ,1, 1, NW, Other, Other, ,  
12/07/2017 18:27, 16, 87, 13 ,1, 1, NW, Other, Other, ,  
12/07/2017 18:22, 16, 84, 12 ,1, 3, SW, Other, Other, ,  
12/07/2017 18:12, 19, 81, 14 ,2, 2, E, Other, Other, ,  
12/07/2017 18:12, 19, 81, 14 ,2, 2, E, Other, Other, ,  
12/07/2017 18:02, 18, 84, 15 ,1, 2, SE, Other, Other, ,  
12/07/2017 17:57, 18, 87, 15 ,0, 1, W, Other, Other, ,  
12/07/2017 17:52, 18, 85, 14 ,0, 0, W, Other, Other, ,  
12/07/2017 17:42, 18, 83, 14 ,1, 1, W, Other, Other, ,  
12/07/2017 17:42, 18, 83, 14 ,1, 1, W, Other, Other, ,  
12/07/2017 17:32, 18, 83, 14 ,1, 2, S, Other, Other, ,  
12/07/2017 17:27, 19, 83, 14 ,2, 2, SE, Other, Other, ,  
12/07/2017 17:22, 19, 80, 14 ,0, 2, E, Other, Other, ,  
12/07/2017 17:12, 20, 80, 15 ,1, 1, E, Other, Other, ,  
12/07/2017 17:11, 20, 80, 15 ,0, 1, SE, Other, Other, ,  
12/07/2017 17:01, 20, 79, 15 ,0, 2, S, Other, Other, ,  
12/07/2017 16:57, 22, 75, 15 ,1, 2, NW, Other, Other, ,  
12/07/2017 16:51, 22, 75, 16 ,1, 3, NW, Other, Other, ,  
12/07/2017 16:43, 23, 72, 15 ,1, 2, W, Other, Other, ,  
12/07/2017 16:41, 23, 71, 15 ,1, 2, SW, Other, Other, ,  
12/07/2017 16:31, 23, 71, 15 ,1, 2, E, Other, Other, ,  
12/07/2017 16:28, 23, 71, 15 ,1, 2, E, Other, Other, ,  
12/07/2017 16:21, 25, 67, 16 ,1, 1, E, Other, Other, ,  
12/07/2017 16:13, 24, 68, 15 ,0, 1, W, Other, Other, ,  
12/07/2017 16:11, 24, 68, 15 ,0, 2, W, Other, Other, ,  
12/07/2017 16:01, 27, 60, 15 ,1, 2, W, Other, Other, ,  
12/07/2017 15:58, 28, 61, 17 ,0, 1, SW, Other, Other, ,  
12/07/2017 15:51, 28, 60, 16 ,0, 2, SW, Other, Other, ,  
12/07/2017 15:43, 29, 60, 17 ,1, 2, S, Other, Other, ,  
12/07/2017 15:41, 28, 61, 17 ,1, 2, SW, Other, Other, ,  
12/07/2017 15:31, 28, 61, 16 ,2, 2, W, Other, Other, ,  
12/07/2017 15:28, 28, 62, 16 ,1, 2, SW, Other, Other, ,  
12/07/2017 15:21, 26, 64, 16 ,1, 3, SW, Other, Other, ,  
12/07/2017 15:13, 27, 62, 16 ,2, 3, SW, Other, Other, ,  
12/07/2017 15:11, 28, 61, 16 ,2, 3, SW, Other, Other, ,  
12/07/2017 15:01, 27, 62, 16 ,0, 4, E, Other, Other, ,  
12/07/2017 14:58, 27, 61, 16 ,2, 4, E, Other, Other, ,  
12/07/2017 14:51, 29, 56, 15 ,1, 2, NE, Other, Other, ,  
12/07/2017 14:43, 30, 58, 17 ,1, 3, S, Other, Other, ,  
12/07/2017 14:41, 29, 61, 18 ,1, 3, SE, Other, Other, ,  
12/07/2017 14:31, 27, 62, 16 ,2, 4, NE, Other, Other, ,  
12/07/2017 14:28, 28, 61, 16 ,2, 6, N, Other, Other, ,  
12/07/2017 14:21, 28, 59, 15 ,3, 6, E, Other, Other, ,  
12/07/2017 14:13, 26, 62, 15 ,2, 4, N, Other, Other, ,  
12/07/2017 14:11, 26, 62, 15 ,1, 4, N, Other, Other, ,  
12/07/2017 14:01, 26, 63, 15 ,4, 6, NW, Other, Other, ,  
12/07/2017 13:58, 27, 61, 15 ,4, 6, W, Other, Other, ,  
12/07/2017 13:50, 28, 61, 16 ,2, 5, NW, Other, Other, ,  
12/07/2017 13:43, 26, 64, 16 ,1, 4, NE, Other, Other, ,  
12/07/2017 13:40, 26, 61, 15 ,2, 4, N, Other, Other, ,  
12/07/2017 13:30, 26, 63, 15 ,0, 2, S, Other, Other, ,  
12/07/2017 13:28, 26, 61, 15 ,1, 3, W, Other, Other, ,  
12/07/2017 13:20, 26, 64, 15 ,2, 4, SW, Other, Other, ,  
12/07/2017 13:13, 25, 65, 15 ,1, 3, E, Other, Other, ,  
12/07/2017 13:10, 25, 65, 15 ,1, 3, E, Other, Other, ,  
12/07/2017 13:00, 25, 69, 16 ,1, 4, SE, Other, Other, ,  
12/07/2017 12:58, 24, 70, 16 ,1, 4, SE, Other, Other, ,  
12/07/2017 12:50, 24, 69, 15 ,3, 4, SE, Other, Other, ,  
12/07/2017 12:43, 23, 70, 14 ,0, 3, NE, Other, Other, ,  
12/07/2017 12:40, 23, 70, 15 ,2, 4, SE, Other, Other, ,  
12/07/2017 12:30, 24, 67, 15 ,1, 4, S, Other, Other, ,  
12/07/2017 12:28, 23, 69, 15 ,1, 4, SW, Other, Other, ,  
12/07/2017 12:20, 23, 70, 15 ,2, 4, SW, Other, Other, ,  
12/07/2017 12:13, 23, 70, 15 ,2, 4, SW, Other, Other, ,  
12/07/2017 12:10, 23, 71, 15 ,2, 3, S, Other, Other, ,  
12/07/2017 12:00, 21, 72, 13 ,2, 4, E, Other, Other, ,  
12/07/2017 11:58, 21, 72, 14 ,1, 4, E, Other, Other, ,  
12/07/2017 11:50, 21, 72, 13 ,2, 4, E, Other, Other, ,  
12/07/2017 11:43, 20, 76, 14 ,2, 4, SE, Other, Other, ,  
12/07/2017 11:40, 21, 75, 14 ,3, 4, SE, Other, Other, ,  
12/07/2017 11:30, 21, 75, 15 ,1, 2, S, Other, Other, ,  
12/07/2017 11:28, 21, 78, 15 ,1, 2, S, Other, Other, ,  
12/07/2017 11:20, 20, 76, 13 ,0, 2, S, Other, Other, ,  
12/07/2017 11:13, 19, 78, 13 ,1, 3, SE, Other, Other, ,  
12/07/2017 11:10, 19, 81, 14 ,2, 4, SE, Other, Other, ,  
12/07/2017 11:00, 19, 82, 14 ,1, 4, SE, Other, Other, ,  
12/07/2017 10:58, 19, 82, 14 ,0, 4, S, Other, Other, ,  
12/07/2017 10:50, 17, 83, 13 ,2, 4, SE, Other, Other, ,  
12/07/2017 10:43, 17, 84, 13 ,2, 4, SE, Other, Other, ,  
12/07/2017 10:40, 16, 83, 12 ,2, 4, SE, Other, Other, ,  
12/07/2017 10:29, 16, 83, 12 ,2, 3, SE, Other, Other, ,  
12/07/2017 10:28, 16, 82, 12 ,2, 3, SE, Other, Other, ,  
12/07/2017 10:19, 16, 86, 12 ,1, 2, SE, Other, Other, ,  
12/07/2017 10:13, 15, 85, 12 ,1, 2, SE, Other, Other, ,  
12/07/2017 10:09, 15, 86, 11 ,0, 2, SE, Other, Other, ,  
12/07/2017 09:59, 14, 87, 11 ,0, 2, S, Other, Other, ,  
12/07/2017 09:58, 14, 86, 10 ,1, 2, S, Other, Other, ,  
12/07/2017 09:49, 14, 87, 11 ,1, 2, S, Other, Other, ,  
12/07/2017 09:43, 14, 89, 11 ,1, 3, SE, Other, Other, ,  
12/07/2017 09:39, 13, 87, 10 ,2, 3, SE, Other, Other, ,  
12/07/2017 09:29, 13, 88, 10 ,2, 3, SE, Other, Other, ,  
12/07/2017 09:28, 13, 87, 10 ,2, 3, SE, Other, Other, ,  
12/07/2017 09:19, 12, 88, 9 ,2, 3, E, Other, Other, ,  
12/07/2017 09:13, 11, 87, 8 ,2, 2, E, Other, Other, ,  
12/07/2017 09:09, 11, 87, 8 ,1, 1, SE, Other, Other, ,  
12/07/2017 08:59, 10, 88, 8 ,0, 0, E, Other, Other, ,  
12/07/2017 08:58, 10, 87, 7 ,0, 0, E, Other, Other, ,  
12/07/2017 08:49, 10, 89, 8 ,0, 1, NE, Other, Other, ,  
12/07/2017 08:43, 10, 89, 7 ,0, 1, NE, Other, Other, ,  
12/07/2017 08:39, 9, 88, 6 ,1, 2, NE, Other, Other, ,  
12/07/2017 08:29, 9, 88, 6 ,1, 2, E, Other, Other, ,  
12/07/2017 08:28, 9, 88, 6 ,1, 1, E, Other, Other, ,  
12/07/2017 08:19, 9, 89, 6 ,0, 1, N, Other, Other, ,  
12/07/2017 08:13, 8, 89, 6 ,0, 0, E, Other, Other, ,  
12/07/2017 08:09, 8, 88, 6 ,0, 1, E, Other, Other, ,  
12/07/2017 07:59, 8, 89, 5 ,0, 1, SE, Other, Other, ,  
12/07/2017 07:58, 8, 88, 5 ,0, 1, SE, Other, Other, ,  
12/07/2017 07:49, 8, 89, 5 ,0, 1, SE, Other, Other, ,  
12/07/2017 07:42, 8, 88, 5 ,0, 1, SE, Other, Other, ,  
12/07/2017 07:38, 8, 87, 5 ,0, 1, SE, Other, Other, ,  
12/07/2017 07:28, 9, 89, 7 ,0, 1, NE, Other, Other, ,  
12/07/2017 07:27, 9, 89, 7 ,0, 2, NE, Other, Other, ,  
12/07/2017 07:18, 9, 88, 6 ,1, 2, E, Other, Other, ,  
12/07/2017 07:12, 9, 88, 6 ,1, 2, E, Other, Other, ,  
12/07/2017 07:08, 9, 88, 6 ,1, 2, E, Other, Other, ,  
12/07/2017 06:58, 9, 88, 6 ,0, 0, SE, Other, Other, ,  
12/07/2017 06:58, 9, 88, 6 ,0, 0, SE, Other, Other, ,  
12/07/2017 06:48, 9, 87, 6 ,1, 2, SE, Other, Other, ,  
12/07/2017 06:43, 9, 89, 7 ,1, 1, E, Other, Other, ,  
12/07/2017 06:38, 9, 89, 6 ,1, 1, E, Other, Other, ,  
12/07/2017 06:28, 10, 89, 7 ,0, 0, NW, Other, Other, ,  
12/07/2017 06:28, 10, 89, 7 ,0, 0, NW, Other, Other, ,  
12/07/2017 06:18, 10, 89, 7 ,0, 1, NW, Other, Other, ,  
12/07/2017 06:13, 10, 89, 7 ,0, 1, E, Other, Other, ,  
12/07/2017 06:08, 10, 89, 7 ,1, 2, E, Other, Other, ,  
12/07/2017 05:58, 10, 90, 7 ,2, 2, E, Other, Other, ,  
12/07/2017 05:58, 10, 90, 7 ,2, 2, E, Other, Other, ,  
12/07/2017 05:48, 10, 90, 7 ,0, 0, E, Other, Other, ,  
12/07/2017 05:43, 10, 90, 7 ,0, 0, E, Other, Other, ,  
12/07/2017 05:38, 10, 89, 7 ,0, 0, E, Other, Other, ,  
12/07/2017 05:28, 10, 90, 8 ,0, 0, E, Other, Other, ,  
12/07/2017 05:28, 10, 90, 8 ,0, 0, E, Other, Other, ,  
12/07/2017 05:18, 11, 91, 8 ,1, 2, E, Other, Other, ,  
12/07/2017 05:13, 11, 91, 8 ,1, 2, E, Other, Other, ,  
12/07/2017 05:08, 10, 90, 8 ,1, 1, E, Other, Other, ,  
12/07/2017 04:58, 10, 88, 7 ,0, 0, E, Other, Other, ,  
12/07/2017 04:48, 11, 90, 9 ,1, 2, E, Other, Other, ,  
12/07/2017 04:43, 10, 90, 8 ,1, 1, NE, Other, Other, ,  
12/07/2017 04:38, 10, 88, 7 ,1, 1, SE, Other, Other, ,  
12/07/2017 04:27, 10, 89, 8 ,1, 1, SE, Other, Other, ,  
12/07/2017 04:27, 10, 89, 8 ,1, 1, SE, Other, Other, ,  
12/07/2017 04:17, 10, 89, 8 ,0, 0, NE, Other, Other, ,  
12/07/2017 04:13, 10, 85, 6 ,0, 1, NE, Other, Other, ,  
12/07/2017 04:07, 11, 91, 9 ,1, 1, E, Other, Other, ,  
12/07/2017 03:57, 10, 88, 8 ,0, 1, E, Other, Other, ,  
12/07/2017 03:57, 10, 88, 8 ,0, 1, E, Other, Other, ,  
12/07/2017 03:47, 10, 87, 7 ,0, 1, E, Other, Other, ,  
12/07/2017 03:42, 11, 85, 8 ,0, 2, NE, Other, Other, ,  
12/07/2017 03:37, 12, 90, 10 ,1, 2, NE, Other, Other, ,  
12/07/2017 03:28, 12, 90, 10 ,0, 1, NE, Other, Other, ,  
12/07/2017 03:27, 12, 90, 10 ,0, 1, E, Other, Other, ,  
12/07/2017 03:17, 12, 90, 10 ,0, 2, E, Other, Other, ,  
12/07/2017 03:13, 12, 89, 9 ,1, 2, E, Other, Other, ,  
12/07/2017 03:07, 12, 88, 9 ,0, 1, E, Other, Other, ,  
12/07/2017 02:57, 12, 90, 10 ,1, 2, E, Other, Other, ,  
12/07/2017 02:57, 12, 90, 10 ,1, 2, E, Other, Other, ,  
12/07/2017 02:47, 11, 89, 9 ,0, 2, SE, Other, Other, ,  
12/07/2017 02:42, 12, 91, 10 ,1, 2, SE, Other, Other, ,  
12/07/2017 02:37, 11, 91, 10 ,1, 2, SE, Other, Other, ,  
12/07/2017 02:27, 11, 88, 9 ,0, 1, NW, Other, Other, ,  
12/07/2017 02:27, 11, 88, 9 ,0, 1, NW, Other, Other, ,  
12/07/2017 02:17, 12, 91, 10 ,1, 1, E, Other, Other, ,  
12/07/2017 02:12, 11, 88, 9 ,0, 1, E, Other, Other, ,  
12/07/2017 02:07, 12, 88, 10 ,0, 1, SE, Other, Other, ,  
12/07/2017 01:57, 13, 90, 10 ,1, 1, E, Other, Other, ,  
12/07/2017 01:57, 13, 90, 10 ,1, 1, E, Other, Other, ,  
12/07/2017 01:47, 13, 88, 10 ,0, 1, SW, Other, Other, ,  
12/07/2017 01:42, 13, 89, 11 ,1, 2, NW, Other, Other, ,  
12/07/2017 01:37, 13, 90, 11 ,2, 2, W, Other, Other, ,  
12/07/2017 01:28, 14, 83, 10 ,0, 2, NE, Other, Other, ,  
12/07/2017 01:27, 14, 84, 10 ,0, 2, NE, Other, Other, ,  
12/07/2017 01:17, 15, 89, 12 ,2, 2, NE, Other, Other, ,  
12/07/2017 01:13, 14, 85, 10 ,1, 1, NW, Other, Other, ,  
12/07/2017 01:06, 15, 89, 13 ,0, 2, NW, Other, Other, ,  
12/07/2017 00:58, 14, 90, 12 ,2, 4, NW, Other, Other, ,  
12/07/2017 00:56, 14, 90, 12 ,2, 4, NW, Other, Other, ,  
12/07/2017 00:46, 14, 86, 11 ,1, 3, W, Other, Other, ,  
12/07/2017 00:43, 15, 84, 11 ,0, 4, E, Other, Other, ,  
12/07/2017 00:36, 16, 85, 12 ,3, 4, NE, Other, Other, ,  
12/07/2017 00:28, 15, 86, 12 ,3, 4, NE, Other, Other, ,  
12/07/2017 00:26, 16, 86, 12 ,2, 4, NE, Other, Other, ,  
12/07/2017 00:16, 15, 88, 12 ,2, 2, NE, Other, Other, ,  
12/07/2017 00:12, 15, 89, 12 ,2, 2, E, Other, Other, ,  
12/07/2017 00:06, 15, 88, 12 ,0, 2, S, Other, Other, ,  
12/06/2017 23:58, 15, 88, 12 ,2, 2, S, Other, Other, ,  
12/06/2017 23:56, 15, 88, 12 ,2, 2, S, Other, Other, ,  
12/06/2017 23:46, 15, 87, 12 ,1, 2, SE, Other, Other, ,  
12/06/2017 23:42, 16, 87, 12 ,1, 2, SE, Other, Other, ,  
12/06/2017 23:36, 16, 88, 13 ,2, 2, E, Other, Other, ,  
12/06/2017 23:28, 15, 88, 12 ,0, 0, SE, Other, Other, ,  
12/06/2017 23:26, 15, 88, 12 ,0, 0, SE, Other, Other, ,  
12/06/2017 23:16, 15, 88, 12 ,0, 1, SE, Other, Other, ,  
12/06/2017 23:13, 15, 88, 12 ,1, 1, SE, Other, Other, ,  
12/06/2017 23:06, 15, 88, 12 ,0, 0, SE, Other, Other, ,  
12/06/2017 22:57, 14, 90, 12 ,0, 0, SE, Other, Other, ,  
12/06/2017 22:56, 14, 90, 12 ,0, 0, SE, Other, Other, ,  
12/06/2017 22:46, 14, 91, 11 ,0, 2, SE, Other, Other, ,  
12/06/2017 22:43, 13, 92, 11 ,1, 2, SE, Other, Other, ,  
12/06/2017 22:36, 13, 88, 10 ,1, 2, SE, Other, Other, ,  
12/06/2017 22:27, 14, 89, 11 ,0, 1, E, Other, Other, ,  
12/06/2017 22:26, 14, 90, 11 ,0, 1, E, Other, Other, ,  
12/06/2017 22:16, 14, 88, 12 ,1, 4, E, Other, Other, ,  
12/06/2017 22:12, 15, 87, 11 ,1, 4, E, Other, Other, ,  
12/06/2017 22:05, 15, 90, 12 ,1, 2, E, Other, Other, ,  
12/06/2017 21:58, 15, 90, 12 ,0, 1, E, Other, Other, ,  
12/06/2017 21:55, 14, 92, 12 ,0, 2, E, Other, Other, ,  
12/06/2017 21:45, 14, 89, 11 ,1, 2, S, Other, Other, ,  
12/06/2017 21:42, 14, 90, 11 ,1, 1, E, Other, Other, ,  
12/06/2017 21:35, 14, 85, 10 ,1, 2, SE, Other, Other, ,  
12/06/2017 21:27, 15, 84, 12 ,0, 2, E, Other, Other, ,  
12/06/2017 21:25, 16, 83, 12 ,1, 2, E, Other, Other, ,  
12/06/2017 21:15, 16, 87, 13 ,1, 2, E, Other, Other, ,  
12/06/2017 21:12, 16, 87, 13 ,1, 2, E, Other, Other, ,  
12/06/2017 21:05, 15, 90, 13 ,2, 2, E, Other, Other, ,  
12/06/2017 20:57, 15, 90, 13 ,1, 2, E, Other, Other, ,  
12/06/2017 20:55, 15, 91, 13 ,1, 2, E, Other, Other, ,  
12/06/2017 20:45, 15, 88, 12 ,0, 2, NW, Other, Other, ,  
12/06/2017 20:42, 15, 88, 13 ,1, 2, NW, Other, Other, ,  
12/06/2017 20:35, 17, 88, 14 ,1, 1, E, Other, Other, ,  
12/06/2017 20:28, 18, 88, 15 ,1, 1, NW, Other, Other, ,  
12/06/2017 20:25, 17, 91, 15 ,0, 1, NW, Other, Other, ,  
12/06/2017 20:15, 17, 89, 14 ,1, 1, NW, Other, Other, ,  
12/06/2017 20:12, 16, 89, 13 ,0, 1, NW, Other, Other, ,  
12/06/2017 20:05, 17, 89, 14 ,0, 1, NW, Other, Other, ,  
12/06/2017 19:57, 18, 87, 15 ,1, 2, E, Other, Other, ,  
12/06/2017 19:55, 18, 89, 15 ,1, 2, E, Other, Other, ,  
12/06/2017 19:45, 18, 87, 15 ,0, 1, E, Other, Other, ,  
12/06/2017 19:42, 18, 86, 15 ,0, 1, E, Other, Other, ,  
12/06/2017 19:35, 19, 87, 15 ,1, 2, E, Other, Other, ,  
12/06/2017 19:27, 19, 84, 15 ,1, 2, W, Other, Other, ,  
12/06/2017 19:25, 20, 83, 15 ,0, 2, SW, Other, Other, ,  
12/06/2017 19:15, 20, 84, 16 ,0, 1, W, Other, Other, ,  
12/06/2017 19:12, 20, 87, 17 ,0, 1, W, Other, Other, ,  
12/06/2017 19:05, 19, 84, 15 ,1, 1, W, Other, Other, ,  
12/06/2017 18:57, 20, 85, 16 ,0, 1, W, Other, Other, ,  
12/06/2017 18:54, 20, 85, 16 ,0, 0, W, Other, Other, ,  
12/06/2017 18:44, 21, 80, 16 ,0, 0, W, Other, Other, ,  
12/06/2017 18:42, 22, 80, 17 ,0, 0, W, Other, Other, ,  
Change End Date:

Copyright © 1998-2015 Vaisala, Inc.
All Rights Reserved
Send comments about the data to:
SCAN Web ® is a registered trademark of Vaisala, Inc.
SCAN Web Version 6.0